createdAt,value
2023-03-14T00:00:44.048Z,0.800
2023-03-14T00:01:43.768Z,0.600
2023-03-14T00:02:44.689Z,0.600
2023-03-14T00:03:44.360Z,0.700
2023-03-14T00:04:43.991Z,0.800
2023-03-14T00:05:43.537Z,0.600
2023-03-14T00:06:44.133Z,1.000
2023-03-14T00:07:43.658Z,0.700
2023-03-14T00:08:44.253Z,0.900
2023-03-14T00:09:43.749Z,0.900
2023-03-14T00:10:44.296Z,0.700
2023-03-14T00:11:43.813Z,0.700
2023-03-14T00:12:44.402Z,0.900
2023-03-14T00:13:43.966Z,0.800
2023-03-14T00:14:43.596Z,0.800
2023-03-14T00:15:44.196Z,0.600
2023-03-14T00:16:43.901Z,1.000
2023-03-14T00:17:43.556Z,0.700
2023-03-14T00:18:44.025Z,0.700
2023-03-14T00:19:43.510Z,0.800
2023-03-14T00:20:44.033Z,0.700
2023-03-14T00:21:43.618Z,0.500
2023-03-14T00:22:44.108Z,0.700
2023-03-14T00:23:43.704Z,0.900
2023-03-14T00:24:44.304Z,0.600
2023-03-14T00:25:43.805Z,0.600
2023-03-14T00:26:44.404Z,0.700
2023-03-14T00:27:43.880Z,0.700
2023-03-14T00:28:44.778Z,0.900
2023-03-14T00:29:44.345Z,0.500
2023-03-14T00:30:43.820Z,0.500
2023-03-14T00:31:44.740Z,0.600
2023-03-14T00:33:44.080Z,0.800
2023-03-14T00:34:44.233Z,0.500
2023-03-14T00:35:43.962Z,0.600
2023-03-14T00:36:43.578Z,0.500
2023-03-14T00:37:44.134Z,0.700
2023-03-14T00:38:43.737Z,0.700
2023-03-14T00:39:44.394Z,0.700
2023-03-14T00:40:43.948Z,0.300
2023-03-14T00:41:43.532Z,0.600
2023-03-14T00:42:44.050Z,0.500
2023-03-14T00:43:43.883Z,0.600
2023-03-14T00:44:44.465Z,0.600
2023-03-14T00:45:43.981Z,0.700
2023-03-14T00:46:43.886Z,0.500
2023-03-14T00:47:43.577Z,0.300
2023-03-14T00:48:44.108Z,0.500
2023-03-14T00:49:43.786Z,0.500
2023-03-14T00:50:44.488Z,0.600
2023-03-14T00:51:43.942Z,0.600
2023-03-14T00:52:43.408Z,0.400
2023-03-14T00:53:43.959Z,0.500
2023-03-14T00:54:43.472Z,0.600
2023-03-14T00:55:44.042Z,0.400
2023-03-14T00:56:43.648Z,0.300
2023-03-14T00:57:44.216Z,0.500
2023-03-14T00:58:43.928Z,0.500
2023-03-14T00:59:43.668Z,0.600
2023-03-14T01:00:44.230Z,0.500
2023-03-14T01:01:44.101Z,2.000
2023-03-14T01:02:44.125Z,1.500
2023-03-14T01:03:43.835Z,0.600
2023-03-14T01:04:44.441Z,1.100
2023-03-14T01:05:44.094Z,0.900
2023-03-14T01:06:43.652Z,0.500
2023-03-14T01:07:44.176Z,0.600
2023-03-14T01:08:43.683Z,0.500
2023-03-14T01:09:44.237Z,0.600
2023-03-14T01:10:43.780Z,0.500
2023-03-14T01:11:44.366Z,0.500
2023-03-14T01:12:43.989Z,0.500
2023-03-14T01:13:43.406Z,0.300
2023-03-14T01:14:44.088Z,0.700
2023-03-14T01:15:43.688Z,0.400
2023-03-14T01:16:44.496Z,0.400
2023-03-14T01:17:44.284Z,0.400
2023-03-14T01:18:43.909Z,0.300
2023-03-14T01:19:44.562Z,0.300
2023-03-14T01:20:44.141Z,0.200
2023-03-14T01:21:43.813Z,0.300
2023-03-14T01:22:44.327Z,0.400
2023-03-14T01:23:43.944Z,0.400
2023-03-14T01:25:44.112Z,0.300
2023-03-14T01:26:43.692Z,0.400
2023-03-14T01:27:44.264Z,0.400
2023-03-14T01:28:43.788Z,0.400
2023-03-14T01:30:43.967Z,0.200
2023-03-14T01:31:43.836Z,0.400
2023-03-14T01:32:44.908Z,0.300
2023-03-14T01:33:43.555Z,0.400
2023-03-14T01:35:44.257Z,0.300
2023-03-14T01:36:46.577Z,0.300
2023-03-14T01:38:43.786Z,0.300
2023-03-14T01:39:44.399Z,0.300
2023-03-14T01:40:44.191Z,0.300
2023-03-14T01:41:43.921Z,0.300
2023-03-14T01:42:44.489Z,0.200
2023-03-14T01:43:44.061Z,0.200
2023-03-14T01:44:43.653Z,0.300
2023-03-14T01:45:44.402Z,0.200
2023-03-14T01:46:44.034Z,0.300
2023-03-14T01:47:43.612Z,0.300
2023-03-14T01:48:44.128Z,0.200
2023-03-14T01:50:44.198Z,0.200
2023-03-14T01:51:43.725Z,0.300
2023-03-14T01:52:44.210Z,0.400
2023-03-14T01:53:43.706Z,0.300
2023-03-14T01:55:43.821Z,0.400
2023-03-14T01:56:44.406Z,0.300
2023-03-14T01:57:44.000Z,0.300
2023-03-14T01:58:43.547Z,0.400
2023-03-14T01:59:44.108Z,0.300
2023-03-14T02:00:43.740Z,0.300
2023-03-14T02:01:44.554Z,0.400
2023-03-14T02:02:44.122Z,0.300
2023-03-14T02:03:43.854Z,0.300
2023-03-14T02:04:43.601Z,0.400
2023-03-14T02:05:44.177Z,0.300
2023-03-14T02:06:44.090Z,0.400
2023-03-14T02:07:43.564Z,0.500
2023-03-14T02:08:44.152Z,0.400
2023-03-14T02:09:43.701Z,0.300
2023-03-14T02:10:44.309Z,0.300
2023-03-14T02:11:43.901Z,0.500
2023-03-14T02:12:43.525Z,0.300
2023-03-14T02:13:44.154Z,0.400
2023-03-14T02:14:43.745Z,0.400
2023-03-14T02:15:44.246Z,0.600
2023-03-14T02:16:44.086Z,0.200
2023-03-14T02:17:43.649Z,0.500
2023-03-14T02:18:44.209Z,0.500
2023-03-14T02:19:43.712Z,0.500
2023-03-14T02:20:44.412Z,0.500
2023-03-14T02:21:44.028Z,0.300
2023-03-14T02:22:43.580Z,0.600
2023-03-14T02:23:44.108Z,0.500
2023-03-14T02:24:43.776Z,0.300
2023-03-14T02:25:44.372Z,0.600
2023-03-14T02:26:43.921Z,0.500
2023-03-14T02:27:44.427Z,0.400
2023-03-14T02:28:44.008Z,0.300
2023-03-14T02:29:43.539Z,0.300
2023-03-14T02:30:44.234Z,0.500
2023-03-14T02:31:44.003Z,0.500
2023-03-14T02:32:43.853Z,0.500
2023-03-14T02:33:43.537Z,0.400
2023-03-14T02:34:44.045Z,0.400
2023-03-14T02:35:43.761Z,0.400
2023-03-14T02:36:44.357Z,0.400
2023-03-14T02:37:43.944Z,0.500
2023-03-14T02:38:43.496Z,0.400
2023-03-14T02:39:44.086Z,0.500
2023-03-14T02:40:43.811Z,0.300
2023-03-14T02:42:44.009Z,0.500
2023-03-14T02:43:43.573Z,0.500
2023-03-14T02:44:44.100Z,0.600
2023-03-14T02:45:43.607Z,0.500
2023-03-14T02:47:43.865Z,0.700
2023-03-14T02:48:43.522Z,0.600
2023-03-14T02:49:44.150Z,0.800
2023-03-14T02:50:43.768Z,0.500
2023-03-14T02:52:43.923Z,0.600
2023-03-14T02:54:43.904Z,0.700
2023-03-14T02:55:43.496Z,0.600
2023-03-14T02:57:43.575Z,0.600
2023-03-14T02:59:43.605Z,0.800
2023-03-14T03:00:44.318Z,0.600
2023-03-14T03:02:43.805Z,0.700
2023-03-14T03:04:44.106Z,0.400
2023-03-14T03:05:43.813Z,0.400
2023-03-14T03:06:44.308Z,0.500
2023-03-14T03:07:43.789Z,0.300
2023-03-14T03:09:44.076Z,0.400
2023-03-14T03:10:43.616Z,0.400
2023-03-14T03:11:44.148Z,0.500
2023-03-14T03:12:43.609Z,0.500
2023-03-14T03:14:43.747Z,0.500
2023-03-14T03:15:44.446Z,0.600
2023-03-14T03:16:44.129Z,0.600
2023-03-14T03:17:43.789Z,0.700
2023-03-14T03:19:44.124Z,0.700
2023-03-14T03:21:44.280Z,0.600
2023-03-14T03:22:43.841Z,0.700
2023-03-14T03:24:43.928Z,0.600
2023-03-14T03:26:44.013Z,0.300
2023-03-14T03:27:43.555Z,0.500
2023-03-14T03:28:44.162Z,0.600
2023-03-14T03:29:43.715Z,0.500
2023-03-14T03:31:44.296Z,0.400
2023-03-14T03:32:43.944Z,0.600
2023-03-14T03:33:43.477Z,0.500
2023-03-14T03:34:43.990Z,0.600
2023-03-14T03:36:44.482Z,0.400
2023-03-14T03:37:44.136Z,0.800
2023-03-14T03:38:43.669Z,0.600
2023-03-14T03:39:44.397Z,0.400
2023-03-14T03:41:43.866Z,0.500
2023-03-14T03:42:44.488Z,0.500
2023-03-14T03:43:44.045Z,0.400
2023-03-14T03:44:43.757Z,0.400
2023-03-14T03:46:44.128Z,0.500
2023-03-14T03:47:43.809Z,0.300
2023-03-14T03:48:44.354Z,0.500
2023-03-14T03:49:43.959Z,0.400
2023-03-14T03:51:44.029Z,0.500
2023-03-14T03:52:43.694Z,0.500
2023-03-14T03:53:50.335Z,0.400
2023-03-14T03:55:44.578Z,0.500
2023-03-14T03:56:44.225Z,0.600
2023-03-14T03:57:43.747Z,0.400
2023-03-14T03:58:44.404Z,0.500
2023-03-14T03:59:44.226Z,0.500
2023-03-14T04:00:43.842Z,0.500
2023-03-14T04:01:45.198Z,0.600
2023-03-14T04:03:44.463Z,0.500
2023-03-14T04:04:44.493Z,0.600
2023-03-14T04:05:44.229Z,0.700
2023-03-14T04:06:44.142Z,0.800
2023-03-14T04:08:44.300Z,0.900
2023-03-14T04:09:43.853Z,1.000
2023-03-14T04:10:44.376Z,0.900
2023-03-14T04:11:44.028Z,0.800
2023-03-14T04:13:44.112Z,0.800
2023-03-14T04:14:43.868Z,0.700
2023-03-14T04:15:43.667Z,0.900
2023-03-14T04:16:50.517Z,0.800
2023-03-14T04:17:49.685Z,0.700
2023-03-14T04:18:47.936Z,0.700
2023-03-14T04:20:44.367Z,0.800
2023-03-14T04:21:44.092Z,0.800
2023-03-14T04:22:46.317Z,0.700
2023-03-14T04:23:43.928Z,1.000
2023-03-14T04:24:43.460Z,1.100
2023-03-14T04:25:44.103Z,0.700
2023-03-14T04:26:43.629Z,0.900
2023-03-14T04:27:44.133Z,1.200
2023-03-14T04:28:43.676Z,0.700
2023-03-14T04:30:43.726Z,0.900
2023-03-14T04:31:44.609Z,0.700
2023-03-14T04:32:44.300Z,0.800
2023-03-14T04:33:46.625Z,0.800
2023-03-14T04:35:43.840Z,1.000
2023-03-14T04:36:45.166Z,0.900
2023-03-14T04:38:44.282Z,0.800
2023-03-14T04:39:43.856Z,1.400
2023-03-14T04:40:44.581Z,0.800
2023-03-14T04:41:44.181Z,1.000
2023-03-14T04:42:43.932Z,0.900
2023-03-14T04:43:43.455Z,0.700
2023-03-14T04:44:44.067Z,1.000
2023-03-14T04:45:43.883Z,0.600
2023-03-14T04:46:44.718Z,0.700
2023-03-14T04:47:44.475Z,0.700
2023-03-14T04:48:43.970Z,0.500
2023-03-14T04:49:43.462Z,0.500
2023-03-14T04:50:43.997Z,0.500
2023-03-14T04:51:43.524Z,0.500
2023-03-14T04:52:44.047Z,0.600
2023-03-14T04:53:43.548Z,0.600
2023-03-14T04:54:44.137Z,0.500
2023-03-14T04:55:43.706Z,0.600
2023-03-14T04:56:44.349Z,0.700
2023-03-14T04:57:43.906Z,0.500
2023-03-14T04:58:43.561Z,0.700
2023-03-14T04:59:44.047Z,0.500
2023-03-14T05:00:43.621Z,0.700
2023-03-14T05:01:44.451Z,0.600
2023-03-14T05:02:44.263Z,0.500
2023-03-14T05:03:43.779Z,0.700
2023-03-14T05:04:44.329Z,0.500
2023-03-14T05:05:43.957Z,0.600
2023-03-14T05:06:43.472Z,0.700
2023-03-14T05:07:44.193Z,0.500
2023-03-14T05:08:43.681Z,0.700
2023-03-14T05:09:44.177Z,0.500
2023-03-14T05:10:43.808Z,0.700
2023-03-14T05:11:44.288Z,0.700
2023-03-14T05:12:43.888Z,0.500
2023-03-14T05:13:43.477Z,0.400
2023-03-14T05:14:44.091Z,0.500
2023-03-14T05:15:43.719Z,0.500
2023-03-14T05:16:44.898Z,0.600
2023-03-14T05:17:44.484Z,0.600
2023-03-14T05:18:44.088Z,0.500
2023-03-14T05:19:43.580Z,0.700
2023-03-14T05:20:44.291Z,0.600
2023-03-14T05:21:44.000Z,0.500
2023-03-14T05:22:43.775Z,0.400
2023-03-14T05:23:44.372Z,0.500
2023-03-14T05:24:43.865Z,0.600
2023-03-14T05:25:44.533Z,0.500
2023-03-14T05:26:44.352Z,0.600
2023-03-14T05:27:43.912Z,0.700
2023-03-14T05:28:43.437Z,0.600
2023-03-14T05:29:43.988Z,1.000
2023-03-14T05:30:43.584Z,0.800
2023-03-14T05:31:44.375Z,0.800
2023-03-14T05:32:44.281Z,0.700
2023-03-14T05:33:44.005Z,0.600
2023-03-14T05:34:43.571Z,0.600
2023-03-14T05:35:44.498Z,0.800
2023-03-14T05:36:44.153Z,0.700
2023-03-14T05:37:44.269Z,0.500
2023-03-14T05:38:43.785Z,0.900
2023-03-14T05:39:44.424Z,0.500
2023-03-14T05:40:44.239Z,0.700
2023-03-14T05:41:43.888Z,0.500
2023-03-14T05:42:44.471Z,0.500
2023-03-14T05:43:44.167Z,0.700
2023-03-14T05:44:43.759Z,0.400
2023-03-14T05:45:44.396Z,0.500
2023-03-14T05:46:44.089Z,0.700
2023-03-14T05:47:43.619Z,0.400
2023-03-14T05:48:44.194Z,0.500
2023-03-14T05:49:43.767Z,0.700
2023-03-14T05:50:44.308Z,0.800
2023-03-14T05:51:43.856Z,0.600
2023-03-14T05:52:44.412Z,0.500
2023-03-14T05:53:43.936Z,0.900
2023-03-14T05:54:44.397Z,0.800
2023-03-14T05:55:43.970Z,0.500
2023-03-14T05:56:43.467Z,0.400
2023-03-14T05:57:44.262Z,0.600
2023-03-14T05:58:43.761Z,0.500
2023-03-14T05:59:44.280Z,0.600
2023-03-14T06:00:43.822Z,0.500
2023-03-14T06:01:44.494Z,0.700
2023-03-14T06:02:44.321Z,0.800
2023-03-14T06:03:44.098Z,1.200
2023-03-14T06:04:43.779Z,0.700
2023-03-14T06:05:43.550Z,0.700
2023-03-14T06:06:44.176Z,0.900
2023-03-14T06:07:43.832Z,0.600
2023-03-14T06:08:44.432Z,0.600
2023-03-14T06:09:44.068Z,1.000
2023-03-14T06:10:43.736Z,0.800
2023-03-14T06:11:44.306Z,0.700
2023-03-14T06:12:44.122Z,0.800
2023-03-14T06:13:43.646Z,0.900
2023-03-14T06:14:44.004Z,0.800
2023-03-14T06:15:43.298Z,0.900
2023-03-14T06:16:44.073Z,0.700
2023-03-14T06:17:43.563Z,0.800
2023-03-14T06:18:43.979Z,0.700
2023-03-14T06:19:43.404Z,0.600
2023-03-14T06:20:43.799Z,0.900
2023-03-14T06:21:44.112Z,0.800
2023-03-14T06:22:43.476Z,1.000
2023-03-14T06:23:43.969Z,0.700
2023-03-14T06:24:43.262Z,0.700
2023-03-14T06:25:43.714Z,1.000
2023-03-14T06:26:44.122Z,0.900
2023-03-14T06:27:43.508Z,0.800
2023-03-14T06:28:44.177Z,0.600
2023-03-14T06:29:43.420Z,0.700
2023-03-14T06:30:43.906Z,0.900
2023-03-14T06:31:44.181Z,1.000
2023-03-14T06:32:43.728Z,1.200
2023-03-14T06:33:44.203Z,0.900
2023-03-14T06:34:43.672Z,0.900
2023-03-14T06:35:43.963Z,1.100
2023-03-14T06:36:43.356Z,1.500
2023-03-14T06:37:43.828Z,1.400
2023-03-14T06:38:44.104Z,1.500
2023-03-14T06:39:43.576Z,1.400
2023-03-14T06:40:44.132Z,0.900
2023-03-14T06:41:43.563Z,1.200
2023-03-14T06:42:43.988Z,1.500
2023-03-14T06:43:43.285Z,1.600
2023-03-14T06:44:43.685Z,1.200
2023-03-14T06:45:44.167Z,1.400
2023-03-14T06:46:44.143Z,1.300
2023-03-14T06:47:43.515Z,1.600
2023-03-14T06:48:43.945Z,1.700
2023-03-14T06:49:43.619Z,1.900
2023-03-14T06:50:43.976Z,1.700
2023-03-14T06:51:43.366Z,1.400
2023-03-14T06:52:43.784Z,1.300
2023-03-14T06:53:44.268Z,1.500
2023-03-14T06:54:43.544Z,1.400
2023-03-14T06:55:43.949Z,1.300
2023-03-14T06:56:43.455Z,1.200
2023-03-14T06:57:43.850Z,1.600
2023-03-14T06:58:44.285Z,1.500
2023-03-14T06:59:43.600Z,1.400
2023-03-14T07:00:44.120Z,1.500
2023-03-14T07:01:43.948Z,1.500
2023-03-14T07:02:53.452Z,1.300
2023-03-14T07:04:44.295Z,1.500
2023-03-14T07:05:43.619Z,1.600
2023-03-14T07:06:44.016Z,1.100
2023-03-14T07:07:43.391Z,1.200
2023-03-14T07:08:43.712Z,1.200
2023-03-14T07:09:44.000Z,1.000
2023-03-14T07:10:43.255Z,1.300
2023-03-14T07:11:43.624Z,1.400
2023-03-14T07:12:44.147Z,1.500
2023-03-14T07:13:43.497Z,1.500
2023-03-14T07:14:43.901Z,1.200
2023-03-14T07:15:49.462Z,1.200
2023-03-14T07:16:44.235Z,1.200
2023-03-14T07:17:43.784Z,1.200
2023-03-14T07:18:44.204Z,1.500
2023-03-14T07:19:43.533Z,1.400
2023-03-14T07:20:43.973Z,1.500
2023-03-14T07:21:43.485Z,1.500
2023-03-14T07:22:43.979Z,1.400
2023-03-14T07:23:44.411Z,1.500
2023-03-14T07:24:43.708Z,1.300
2023-03-14T07:25:44.192Z,1.500
2023-03-14T07:26:43.485Z,1.600
2023-03-14T07:27:46.591Z,1.300
2023-03-14T07:28:44.184Z,1.600
2023-03-14T07:29:43.461Z,1.300
2023-03-14T07:30:44.125Z,1.100
2023-03-14T07:31:43.847Z,1.300
2023-03-14T07:32:44.570Z,1.300
2023-03-14T07:33:46.796Z,1.300
2023-03-14T07:34:44.108Z,1.600
2023-03-14T07:35:43.484Z,1.700
2023-03-14T07:36:43.929Z,1.200
2023-03-14T07:37:44.336Z,1.200
2023-03-14T07:38:43.645Z,1.400
2023-03-14T07:39:44.037Z,1.300
2023-03-14T07:40:43.834Z,1.700
2023-03-14T07:41:44.198Z,1.500
2023-03-14T07:42:43.785Z,1.300
2023-03-14T07:43:44.369Z,1.900
2023-03-14T07:44:43.755Z,1.600
2023-03-14T07:45:46.285Z,3.000
2023-03-14T07:47:44.222Z,1.800
2023-03-14T07:48:43.608Z,1.900
2023-03-14T07:49:44.088Z,2.100
2023-03-14T07:50:43.617Z,1.700
2023-03-14T07:51:43.939Z,1.600
2023-03-14T07:52:43.799Z,2.000
2023-03-14T07:53:44.388Z,1.500
2023-03-14T07:54:43.788Z,1.600
2023-03-14T07:55:44.292Z,2.000
2023-03-14T07:56:43.817Z,1.500
2023-03-14T07:57:44.342Z,1.700
2023-03-14T07:58:43.568Z,1.600
2023-03-14T07:59:43.937Z,1.700
2023-03-14T08:00:44.574Z,1.600
2023-03-14T08:01:44.085Z,1.500
2023-03-14T08:02:43.765Z,1.500
2023-03-14T08:03:44.513Z,1.600
2023-03-14T08:04:44.001Z,1.100
2023-03-14T08:05:43.572Z,1.100
2023-03-14T08:06:43.712Z,1.200
2023-03-14T08:07:44.029Z,1.500
2023-03-14T08:08:43.396Z,1.500
2023-03-14T08:09:43.897Z,1.300
2023-03-14T08:10:44.400Z,1.300
2023-03-14T08:11:43.877Z,1.400
2023-03-14T08:12:43.317Z,1.200
2023-03-14T08:13:44.024Z,1.200
2023-03-14T08:14:43.406Z,0.800
2023-03-14T08:15:44.098Z,1.500
2023-03-14T08:16:43.922Z,1.300
2023-03-14T08:17:46.750Z,1.100
2023-03-14T08:19:43.619Z,1.100
2023-03-14T08:20:44.477Z,1.400
2023-03-14T08:21:43.969Z,1.300
2023-03-14T08:22:43.417Z,1.200
2023-03-14T08:23:43.987Z,1.100
2023-03-14T08:24:43.336Z,1.400
2023-03-14T08:25:44.428Z,1.000
2023-03-14T08:26:44.089Z,1.400
2023-03-14T08:27:46.582Z,1.200
2023-03-14T08:28:44.177Z,0.900
2023-03-14T08:29:43.976Z,1.200
2023-03-14T08:30:47.781Z,1.500
2023-03-14T08:32:44.040Z,1.200
2023-03-14T08:33:43.943Z,1.900
2023-03-14T08:34:43.784Z,1.500
2023-03-14T08:35:44.662Z,1.800
2023-03-14T08:37:49.173Z,1.000
2023-03-14T08:39:45.197Z,1.500
2023-03-14T08:41:43.927Z,1.200
2023-03-14T08:42:43.584Z,1.300
2023-03-14T08:43:44.439Z,1.100
2023-03-14T08:44:44.547Z,1.100
2023-03-14T08:45:44.231Z,1.500
2023-03-14T08:46:44.219Z,1.300
2023-03-14T08:47:43.946Z,1.000
2023-03-14T08:48:43.987Z,1.300
2023-03-14T08:49:43.897Z,1.100
2023-03-14T08:50:43.663Z,1.300
2023-03-14T08:51:44.307Z,1.400
2023-03-14T08:52:44.135Z,1.500
2023-03-14T08:53:43.939Z,1.400
2023-03-14T08:54:43.476Z,1.600
2023-03-14T08:55:44.280Z,1.200
2023-03-14T08:56:44.120Z,1.500
2023-03-14T08:57:43.955Z,1.700
2023-03-14T08:58:43.716Z,1.200
2023-03-14T08:59:44.324Z,1.400
2023-03-14T09:00:43.962Z,1.000
2023-03-14T09:01:43.737Z,1.100
2023-03-14T09:02:44.532Z,1.100
2023-03-14T09:03:44.334Z,1.100
2023-03-14T09:04:44.458Z,0.900
2023-03-14T09:05:44.245Z,1.200
2023-03-14T09:06:44.106Z,1.700
2023-03-14T09:07:44.089Z,1.100
2023-03-14T09:08:43.845Z,1.200
2023-03-14T09:09:44.447Z,0.900
2023-03-14T09:10:44.036Z,1.000
2023-03-14T09:11:43.657Z,1.000
2023-03-14T09:12:44.277Z,1.400
2023-03-14T09:13:43.947Z,1.200
2023-03-14T09:14:43.626Z,1.000
2023-03-14T09:15:44.420Z,1.200
2023-03-14T09:16:44.401Z,1.500
2023-03-14T09:17:44.199Z,0.900
2023-03-14T09:18:44.074Z,1.200
2023-03-14T09:19:43.775Z,1.100
2023-03-14T09:20:44.579Z,1.200
2023-03-14T09:21:44.324Z,1.300
2023-03-14T09:22:43.921Z,1.000
2023-03-14T09:23:46.702Z,1.000
2023-03-14T09:25:44.300Z,1.100
2023-03-14T09:26:43.940Z,1.100
2023-03-14T09:27:43.564Z,1.200
2023-03-14T09:28:44.149Z,1.200
2023-03-14T09:29:43.826Z,1.000
2023-03-14T09:30:44.481Z,1.100
2023-03-14T09:31:44.157Z,0.900
2023-03-14T09:32:44.243Z,1.200
2023-03-14T09:33:44.019Z,1.600
2023-03-14T09:34:43.756Z,1.400
2023-03-14T09:35:44.628Z,0.900
2023-03-14T09:36:44.383Z,1.300
2023-03-14T09:37:44.137Z,1.000
2023-03-14T09:38:43.845Z,0.600
2023-03-14T09:39:44.697Z,0.900
2023-03-14T09:41:43.665Z,0.600
2023-03-14T09:42:44.411Z,0.700
2023-03-14T09:43:44.469Z,0.900
2023-03-14T09:44:44.267Z,0.600
2023-03-14T09:45:44.198Z,1.000
2023-03-14T09:47:58.494Z,0.900
2023-03-14T09:49:49.870Z,0.700
2023-03-14T09:50:48.391Z,1.000
2023-03-14T09:51:48.181Z,0.700
2023-03-14T09:52:48.055Z,0.700
2023-03-14T09:53:47.711Z,0.600
2023-03-14T09:54:48.284Z,0.700
2023-03-14T09:55:47.976Z,1.000
2023-03-14T09:56:47.654Z,0.800
2023-03-14T09:57:48.303Z,0.800
2023-03-14T09:58:47.949Z,0.800
2023-03-14T09:59:47.549Z,0.600
2023-03-14T10:00:48.305Z,0.800
2023-03-14T10:01:50.839Z,0.700
2023-03-14T10:02:47.525Z,0.900
2023-03-14T10:03:48.213Z,0.700
2023-03-14T10:04:47.986Z,0.700
2023-03-14T10:05:47.668Z,0.900
2023-03-14T10:07:48.085Z,0.700
2023-03-14T10:09:48.377Z,0.700
2023-03-14T10:10:48.038Z,0.700
2023-03-14T10:11:47.672Z,0.900
2023-03-14T10:12:48.765Z,0.800
2023-03-14T10:14:48.520Z,0.700
2023-03-14T10:15:48.228Z,1.000
2023-03-14T10:16:47.964Z,1.300
2023-03-14T10:17:47.600Z,0.900
2023-03-14T10:19:47.873Z,0.900
2023-03-14T10:20:47.716Z,0.900
2023-03-14T10:22:48.382Z,1.000
2023-03-14T10:24:47.898Z,0.700
2023-03-14T10:25:48.565Z,0.700
2023-03-14T10:27:49.057Z,0.700
2023-03-14T10:28:47.733Z,0.600
2023-03-14T10:29:48.360Z,0.700
2023-03-14T10:30:48.197Z,0.700
2023-03-14T10:31:47.981Z,1.000
2023-03-14T10:32:47.906Z,0.600
2023-03-14T10:33:47.581Z,1.100
2023-03-14T10:34:48.241Z,0.900
2023-03-14T10:35:48.020Z,0.800
2023-03-14T10:36:50.725Z,0.700
2023-03-14T10:38:48.292Z,0.600
2023-03-14T10:39:47.979Z,0.700
2023-03-14T10:40:47.668Z,0.900
2023-03-14T10:41:48.356Z,0.900
2023-03-14T10:42:48.002Z,0.600
2023-03-14T10:43:47.860Z,0.700
2023-03-14T10:44:48.546Z,0.700
2023-03-14T10:45:48.435Z,0.600
2023-03-14T10:46:48.661Z,0.800
2023-03-14T10:47:48.364Z,0.800
2023-03-14T10:48:48.143Z,0.800
2023-03-14T10:49:47.778Z,1.000
2023-03-14T10:50:48.581Z,1.100
2023-03-14T10:51:48.257Z,0.900
2023-03-14T10:53:03.413Z,0.800
2023-03-14T10:54:53.332Z,0.900
2023-03-14T10:55:53.083Z,1.100
2023-03-14T10:56:52.857Z,0.800
2023-03-14T10:57:52.549Z,0.700
2023-03-14T10:58:53.322Z,0.500
2023-03-14T10:59:52.932Z,0.900
2023-03-14T11:01:53.864Z,0.800
2023-03-14T11:02:52.663Z,0.900
2023-03-14T11:04:53.272Z,1.000
2023-03-14T11:06:52.746Z,0.600
2023-03-14T11:07:53.557Z,0.600
2023-03-14T11:09:52.723Z,0.700
2023-03-14T11:10:53.439Z,0.500
2023-03-14T11:11:53.068Z,0.500
2023-03-14T11:12:52.752Z,0.600
2023-03-14T11:13:53.355Z,0.800
2023-03-14T11:14:52.980Z,0.800
2023-03-14T11:15:52.961Z,0.600
2023-03-14T11:16:53.070Z,1.000
2023-03-14T11:17:52.640Z,0.800
2023-03-14T11:18:53.517Z,0.600
2023-03-14T11:19:54.056Z,0.700
2023-03-14T11:21:52.735Z,0.500
2023-03-14T11:23:52.965Z,0.500
2023-03-14T11:24:52.653Z,0.400
2023-03-14T11:26:52.792Z,0.600
2023-03-14T11:27:53.575Z,0.300
2023-03-14T11:28:53.231Z,0.400
2023-03-14T11:29:52.925Z,0.400
2023-03-14T11:30:52.896Z,0.400
2023-03-14T11:31:53.714Z,0.400
2023-03-14T11:33:53.131Z,0.300
2023-03-14T11:34:52.738Z,0.400
2023-03-14T11:35:54.091Z,0.500
2023-03-14T11:36:53.503Z,0.400
2023-03-14T11:38:53.804Z,0.400
2023-03-14T11:39:54.069Z,0.400
2023-03-14T11:40:53.617Z,0.300
2023-03-14T11:41:53.845Z,0.200
2023-03-14T11:43:53.184Z,0.300
2023-03-14T11:44:52.878Z,0.300
2023-03-14T11:45:53.912Z,0.300
2023-03-14T11:46:52.921Z,0.400
2023-03-14T11:48:53.609Z,0.200
2023-03-14T11:49:53.246Z,0.400
2023-03-14T11:50:53.044Z,0.300
2023-03-14T11:51:53.148Z,0.300
2023-03-14T11:53:53.612Z,0.300
2023-03-14T11:54:53.444Z,0.400
2023-03-14T11:55:53.265Z,0.200
2023-03-14T11:56:53.112Z,0.200
2023-03-14T11:58:55.541Z,0.300
2023-03-14T11:59:53.177Z,0.300
2023-03-14T12:00:52.893Z,0.300
2023-03-14T12:01:53.641Z,0.300
2023-03-14T12:02:53.772Z,0.400
2023-03-14T12:04:53.268Z,0.500
2023-03-14T12:05:53.063Z,0.500
2023-03-14T12:06:52.781Z,0.600
2023-03-14T12:07:53.487Z,0.400
2023-03-14T12:08:53.142Z,0.500
2023-03-14T12:09:52.795Z,0.400
2023-03-14T12:10:53.417Z,0.500
2023-03-14T12:11:53.031Z,0.500
2023-03-14T12:12:52.700Z,0.400
2023-03-14T12:13:53.288Z,0.500
2023-03-14T12:14:52.915Z,0.400
2023-03-14T12:15:52.556Z,0.400
2023-03-14T12:16:58.924Z,0.400
2023-03-14T12:17:52.652Z,0.700
2023-03-14T12:18:53.273Z,0.200
2023-03-14T12:19:52.978Z,0.200
2023-03-14T12:20:52.737Z,0.600
2023-03-14T12:21:53.337Z,0.300
2023-03-14T12:22:52.976Z,0.300
2023-03-14T12:23:52.549Z,0.300
2023-03-14T12:24:53.205Z,0.400
2023-03-14T12:25:52.777Z,0.500
2023-03-14T12:26:53.466Z,0.400
2023-03-14T12:27:53.009Z,0.300
2023-03-14T12:28:52.780Z,0.200
2023-03-14T12:29:53.383Z,0.600
2023-03-14T12:30:53.252Z,0.300
2023-03-14T12:31:53.134Z,0.300
2023-03-14T12:32:53.024Z,0.400
2023-03-14T12:33:52.683Z,0.300
2023-03-14T12:35:53.293Z,0.400
2023-03-14T12:36:53.016Z,0.400
2023-03-14T12:37:52.574Z,0.300
2023-03-14T12:38:53.228Z,0.300
2023-03-14T12:40:52.764Z,0.400
2023-03-14T12:41:53.380Z,0.400
2023-03-14T12:43:01.467Z,0.400
2023-03-14T12:43:53.065Z,0.600
2023-03-14T12:44:52.783Z,0.300
2023-03-14T12:45:53.946Z,0.200
2023-03-14T12:47:53.468Z,0.400
2023-03-14T12:48:53.055Z,0.500
2023-03-14T12:49:52.885Z,0.400
2023-03-14T12:50:53.441Z,0.500
2023-03-14T12:51:53.121Z,0.300
2023-03-14T12:52:52.682Z,0.600
2023-03-14T12:53:53.710Z,0.500
2023-03-14T12:55:52.947Z,0.400
2023-03-14T12:56:52.575Z,0.400
2023-03-14T12:57:53.132Z,0.400
2023-03-14T12:58:52.894Z,0.500
2023-03-14T12:59:52.752Z,0.300
2023-03-14T13:00:53.599Z,0.400
2023-03-14T13:02:53.230Z,0.300
2023-03-14T13:03:53.004Z,0.300
2023-03-14T13:04:58.717Z,0.300
2023-03-14T13:05:53.482Z,0.400
2023-03-14T13:06:53.140Z,0.200
2023-03-14T13:07:52.734Z,0.300
2023-03-14T13:08:55.880Z,0.400
2023-03-14T13:10:58.468Z,0.300
2023-03-14T13:11:53.316Z,0.500
2023-03-14T13:12:53.635Z,0.400
2023-03-14T13:13:53.344Z,0.500
2023-03-14T13:15:53.763Z,0.500
2023-03-14T13:16:53.701Z,0.400
2023-03-14T13:17:58.680Z,0.300
2023-03-14T13:18:53.350Z,0.200
2023-03-14T13:20:53.138Z,0.200
2023-03-14T13:21:53.569Z,0.300
2023-03-14T13:23:53.149Z,0.400
2023-03-14T13:25:53.653Z,0.600
2023-03-14T13:26:53.585Z,0.200
2023-03-14T13:27:55.578Z,0.400
2023-03-14T13:29:52.606Z,0.200
2023-03-14T13:30:53.586Z,0.300
2023-03-14T13:31:53.297Z,0.300
2023-03-14T13:32:53.421Z,0.200
2023-03-14T13:33:53.701Z,0.200
2023-03-14T13:35:53.485Z,0.300
2023-03-14T13:36:53.233Z,0.400
2023-03-14T13:38:10.453Z,0.300
2023-03-14T13:39:58.106Z,0.400
2023-03-14T13:40:57.847Z,0.400
2023-03-14T13:41:58.496Z,0.300
2023-03-14T13:42:58.051Z,0.300
2023-03-14T13:43:57.672Z,0.400
2023-03-14T13:44:58.383Z,0.200
2023-03-14T13:45:58.144Z,0.400
2023-03-14T13:46:58.440Z,0.500
2023-03-14T13:48:57.420Z,0.300
2023-03-14T13:49:57.985Z,0.300
2023-03-14T13:50:59.562Z,0.400
2023-03-14T13:51:58.185Z,0.300
2023-03-14T13:52:57.817Z,0.400
2023-03-14T13:53:58.369Z,0.400
2023-03-14T13:55:57.669Z,0.400
2023-03-14T13:56:59.663Z,0.500
2023-03-14T13:57:58.239Z,0.400
2023-03-14T13:58:57.812Z,0.500
2023-03-14T13:59:58.568Z,0.600
2023-03-14T14:01:58.049Z,0.400
2023-03-14T14:02:58.008Z,0.500
2023-03-14T14:03:57.830Z,0.500
2023-03-14T14:04:58.955Z,0.600
2023-03-14T14:06:58.419Z,0.500
2023-03-14T14:07:58.068Z,0.400
2023-03-14T14:08:57.969Z,0.600
2023-03-14T14:09:57.560Z,0.400
2023-03-14T14:12:16.587Z,0.600
2023-03-14T14:14:06.511Z,0.500
2023-03-14T14:15:06.156Z,1.000
2023-03-14T14:16:06.061Z,0.600
2023-03-14T14:17:07.929Z,0.800
2023-03-14T14:19:06.539Z,0.500
2023-03-14T14:20:06.187Z,0.500
2023-03-14T14:22:06.119Z,0.700